createdAt,value
2019-04-10T00:00:37.418Z,55.00
2019-04-10T00:03:06.914Z,55.20
2019-04-10T00:05:36.285Z,55.10
2019-04-10T00:08:06.199Z,55.00
2019-04-10T00:10:36.212Z,54.80
2019-04-10T00:13:06.564Z,54.80
2019-04-10T00:15:36.182Z,54.70
2019-04-10T00:18:05.646Z,54.60
2019-04-10T00:20:36.606Z,54.50
2019-04-10T00:23:06.794Z,54.20
2019-04-10T00:25:37.105Z,54.60
2019-04-10T00:28:08.005Z,54.10
2019-04-10T00:30:37.644Z,54.10
2019-04-10T00:33:08.118Z,53.90
2019-04-10T00:35:37.753Z,53.80
2019-04-10T00:38:07.231Z,53.60
2019-04-10T00:40:37.040Z,53.40
2019-04-10T00:43:06.667Z,52.90
2019-04-10T00:45:36.238Z,52.80
2019-04-10T00:48:05.890Z,52.60
2019-04-10T00:50:35.270Z,52.50
2019-04-10T00:53:05.073Z,52.40
2019-04-10T00:55:35.528Z,52.80
2019-04-10T00:58:05.827Z,52.40
2019-04-10T01:00:36.816Z,52.20
2019-04-10T01:03:07.398Z,52.00
2019-04-10T01:05:37.618Z,51.90
2019-04-10T01:08:07.127Z,51.80
2019-04-10T01:10:38.679Z,51.80
2019-04-10T01:13:08.359Z,51.80
2019-04-10T01:15:38.574Z,51.80
2019-04-10T01:18:08.061Z,51.80
2019-04-10T01:20:37.738Z,51.70
2019-04-10T01:23:07.896Z,51.30
2019-04-10T01:25:37.394Z,51.30
2019-04-10T01:28:06.837Z,51.40
2019-04-10T01:30:36.250Z,51.30
2019-04-10T01:33:06.180Z,51.20
2019-04-10T01:35:35.616Z,50.90
2019-04-10T01:38:06.425Z,50.80
2019-04-10T01:40:37.329Z,50.60
2019-04-10T01:43:12.880Z,50.50
2019-04-10T01:45:39.751Z,50.30
2019-04-10T01:48:10.377Z,50.10
2019-04-10T01:50:39.743Z,50.10
2019-04-10T01:53:09.191Z,49.80
2019-04-10T01:55:38.818Z,49.70
2019-04-10T01:58:10.628Z,49.70
2019-04-10T02:00:43.785Z,49.50
2019-04-10T02:03:13.902Z,49.20
2019-04-10T02:05:43.419Z,49.10
2019-04-10T02:08:15.013Z,48.90
2019-04-10T02:10:44.626Z,48.40
2019-04-10T02:13:14.909Z,48.10
2019-04-10T02:15:46.068Z,48.00
2019-04-10T02:18:15.549Z,47.80
2019-04-10T02:20:45.198Z,47.70
2019-04-10T02:23:14.646Z,47.60
2019-04-10T02:25:45.081Z,47.70
2019-04-10T02:28:13.931Z,47.60
2019-04-10T02:30:43.706Z,47.40
2019-04-10T02:33:13.933Z,47.30
2019-04-10T02:35:43.587Z,47.20
2019-04-10T02:38:30.583Z,47.00
2019-04-10T02:40:57.536Z,46.70
2019-04-10T02:43:27.344Z,46.60
2019-04-10T02:45:57.702Z,46.60
2019-04-10T02:48:27.575Z,46.60
2019-04-10T02:50:57.598Z,46.70
2019-04-10T02:53:27.632Z,46.50
2019-04-10T02:55:58.290Z,46.50
2019-04-10T02:58:28.181Z,46.50
2019-04-10T03:00:58.964Z,46.50
2019-04-10T03:03:29.820Z,46.50
2019-04-10T03:05:59.451Z,46.50
2019-04-10T03:08:44.657Z,46.60
2019-04-10T03:11:04.209Z,46.80
2019-04-10T03:13:33.531Z,47.00
2019-04-10T03:16:03.111Z,47.00
2019-04-10T03:18:32.706Z,47.10
2019-04-10T03:21:02.720Z,47.20
2019-04-10T03:23:32.162Z,47.50
2019-04-10T03:26:01.568Z,47.50
2019-04-10T03:28:31.980Z,47.60
2019-04-10T03:31:03.491Z,47.80
2019-04-10T03:33:37.474Z,47.70
2019-04-10T03:36:05.350Z,48.00
2019-04-10T03:38:47.335Z,48.30
2019-04-10T03:41:06.025Z,48.40
2019-04-10T03:43:36.123Z,48.50
2019-04-10T03:46:05.622Z,48.70
2019-04-10T03:48:35.002Z,48.80
2019-04-10T03:51:04.351Z,49.00
2019-04-10T03:53:34.060Z,49.30
2019-04-10T03:56:03.879Z,49.40
2019-04-10T03:58:33.601Z,49.40
2019-04-10T04:01:03.055Z,49.40
2019-04-10T04:03:32.942Z,49.50
2019-04-10T04:06:03.520Z,49.80
2019-04-10T04:08:35.285Z,50.00
2019-04-10T04:11:04.932Z,50.10
2019-04-10T04:13:35.447Z,50.10
2019-04-10T04:16:06.677Z,50.30
2019-04-10T04:18:37.468Z,50.70
2019-04-10T04:21:07.643Z,50.80
2019-04-10T04:23:38.191Z,51.00
2019-04-10T04:26:08.810Z,51.20
2019-04-10T04:28:38.211Z,51.30
2019-04-10T04:31:07.598Z,51.30
2019-04-10T04:33:36.947Z,51.40
2019-04-10T04:36:06.395Z,51.70
2019-04-10T04:38:36.748Z,51.70
2019-04-10T04:41:06.844Z,51.70
2019-04-10T04:43:37.039Z,51.70
2019-04-10T04:46:06.600Z,51.70
2019-04-10T04:48:36.860Z,51.90
2019-04-10T04:51:06.733Z,52.00
2019-04-10T04:53:36.420Z,52.00
2019-04-10T04:56:05.890Z,51.90
2019-04-10T04:58:36.342Z,52.00
2019-04-10T05:01:06.298Z,52.00
2019-04-10T05:03:37.460Z,52.00
2019-04-10T05:06:08.609Z,52.20
2019-04-10T05:08:39.944Z,52.30
2019-04-10T05:11:09.849Z,52.30
2019-04-10T05:13:40.093Z,52.30
2019-04-10T05:16:10.161Z,52.90
2019-04-10T05:18:39.669Z,52.40
2019-04-10T05:21:09.020Z,52.60
2019-04-10T05:23:38.534Z,52.70
2019-04-10T05:26:08.169Z,52.60
2019-04-10T05:28:38.133Z,52.80
2019-04-10T05:31:08.638Z,52.90
2019-04-10T05:33:38.705Z,52.90
2019-04-10T05:36:08.944Z,53.10
2019-04-10T05:38:38.446Z,53.00
2019-04-10T05:41:07.805Z,53.10
2019-04-10T05:43:38.105Z,53.10
2019-04-10T05:46:07.644Z,53.30
2019-04-10T05:48:37.019Z,53.30
2019-04-10T05:51:07.980Z,53.20
2019-04-10T05:53:37.589Z,53.30
2019-04-10T05:56:09.857Z,53.30
2019-04-10T05:58:39.331Z,53.40
2019-04-10T06:01:09.503Z,54.10
2019-04-10T06:03:39.042Z,53.40
2019-04-10T06:06:28.485Z,53.30
2019-04-10T06:08:58.359Z,53.40
2019-04-10T06:11:28.903Z,53.30
2019-04-10T06:13:59.129Z,54.00
2019-04-10T06:16:28.689Z,53.60
2019-04-10T06:18:58.006Z,53.80
2019-04-10T06:21:28.775Z,53.80
2019-04-10T06:23:58.493Z,53.90
2019-04-10T06:26:32.338Z,53.80
2019-04-10T06:29:02.829Z,53.80
2019-04-10T06:31:32.592Z,54.00
2019-04-10T06:34:02.142Z,53.70
2019-04-10T06:36:31.560Z,53.70
2019-04-10T06:39:00.946Z,53.80
2019-04-10T06:41:32.708Z,53.90
2019-04-10T06:44:02.211Z,54.00
2019-04-10T06:46:32.627Z,54.00
2019-04-10T06:49:02.957Z,54.10
2019-04-10T06:51:33.428Z,54.10
2019-04-10T06:54:08.078Z,54.10
2019-04-10T06:56:34.106Z,54.00
2019-04-10T06:59:04.541Z,53.80
2019-04-10T07:01:43.474Z,53.60
2019-04-10T07:04:07.604Z,53.50
2019-04-10T07:06:47.221Z,53.50
2019-04-10T07:09:09.566Z,53.70
2019-04-10T07:11:40.678Z,53.50
2019-04-10T07:14:12.608Z,52.80
2019-04-10T07:16:42.255Z,53.30
2019-04-10T07:19:13.169Z,53.40
2019-04-10T07:21:43.246Z,53.40
2019-04-10T07:24:14.993Z,53.10
2019-04-10T07:26:46.600Z,53.10
2019-04-10T07:29:18.686Z,53.30
2019-04-10T07:31:46.708Z,53.10
2019-04-10T07:34:20.076Z,53.10
2019-04-10T07:36:47.265Z,53.40
2019-04-10T07:39:17.349Z,53.20
2019-04-10T07:41:47.437Z,53.10
2019-04-10T07:44:17.320Z,52.80
2019-04-10T07:46:50.797Z,52.60
2019-04-10T07:49:21.920Z,52.40
2019-04-10T07:51:52.031Z,52.40
2019-04-10T07:54:24.627Z,52.30
2019-04-10T07:56:55.689Z,52.30
2019-04-10T07:59:25.250Z,52.60
2019-04-10T08:02:00.746Z,52.30
2019-04-10T08:04:31.063Z,52.10
2019-04-10T08:07:00.957Z,52.30
2019-04-10T08:09:30.570Z,52.40
2019-04-10T08:12:00.854Z,52.20
2019-04-10T08:14:31.506Z,52.10
2019-04-10T08:17:06.665Z,51.80
2019-04-10T08:19:37.447Z,51.50
2019-04-10T08:22:08.191Z,51.50
2019-04-10T08:24:38.552Z,51.60
2019-04-10T08:27:10.293Z,51.00
2019-04-10T08:29:40.798Z,51.10
2019-04-10T08:32:10.298Z,51.00
2019-04-10T08:34:40.055Z,51.10
2019-04-10T08:37:10.317Z,51.40
2019-04-10T08:39:43.011Z,51.00
2019-04-10T08:42:10.922Z,51.50
2019-04-10T08:44:40.507Z,51.00
2019-04-10T08:47:11.012Z,51.30
2019-04-10T08:49:41.169Z,51.30
2019-04-10T08:52:12.267Z,51.10
2019-04-10T08:54:44.708Z,51.20
2019-04-10T08:57:14.270Z,51.50
2019-04-10T08:59:44.520Z,51.70
2019-04-10T09:02:14.943Z,51.40
2019-04-10T09:04:49.025Z,51.00
2019-04-10T09:07:18.561Z,50.50
2019-04-10T09:09:48.263Z,51.20
2019-04-10T09:12:18.307Z,50.40
2019-04-10T09:14:47.709Z,50.30
2019-04-10T09:17:17.534Z,50.00
2019-04-10T09:19:47.016Z,50.00
2019-04-10T09:22:17.992Z,49.80
2019-04-10T09:24:49.522Z,49.70
2019-04-10T09:27:19.431Z,48.90
2019-04-10T09:29:48.843Z,49.20
2019-04-10T09:32:18.320Z,49.30
2019-04-10T09:34:49.873Z,49.40
2019-04-10T09:37:19.322Z,49.30
2019-04-10T09:39:51.734Z,49.50
2019-04-10T09:42:21.520Z,49.40
2019-04-10T09:44:51.030Z,49.20
2019-04-10T09:47:20.625Z,49.10
2019-04-10T09:49:51.814Z,49.50
2019-04-10T09:52:21.749Z,49.80
2019-04-10T09:54:51.446Z,49.80
2019-04-10T09:57:20.889Z,49.20
2019-04-10T09:59:50.911Z,49.30
2019-04-10T10:02:20.306Z,49.40
2019-04-10T10:04:51.211Z,49.20
2019-04-10T10:07:20.787Z,49.10
2019-04-10T10:09:51.338Z,48.90
2019-04-10T10:12:22.037Z,49.00
2019-04-10T10:14:51.925Z,49.10
2019-04-10T10:17:22.365Z,49.20
2019-04-10T10:19:53.523Z,50.00
2019-04-10T10:22:26.007Z,49.60
2019-04-10T10:24:56.747Z,48.90
2019-04-10T10:27:26.921Z,49.10
2019-04-10T10:29:56.524Z,49.40
2019-04-10T10:32:26.702Z,49.10
2019-04-10T10:34:57.127Z,48.80
2019-04-10T10:37:26.851Z,48.80
2019-04-10T10:39:56.301Z,48.80
2019-04-10T10:42:27.585Z,48.90
2019-04-10T10:44:58.468Z,49.10
2019-04-10T10:47:29.271Z,48.80
2019-04-10T10:49:59.247Z,48.70
2019-04-10T10:52:33.069Z,48.70
2019-04-10T10:55:02.952Z,48.50
2019-04-10T10:57:33.479Z,48.60
2019-04-10T11:00:04.049Z,48.50
2019-04-10T11:02:35.862Z,48.00
2019-04-10T11:05:08.925Z,48.40
2019-04-10T11:07:42.888Z,48.30
2019-04-10T11:10:12.591Z,48.10
2019-04-10T11:12:42.378Z,48.40
2019-04-10T11:15:12.342Z,48.20
2019-04-10T11:17:42.182Z,48.80
2019-04-10T11:20:12.648Z,48.40
2019-04-10T11:22:42.520Z,48.20
2019-04-10T11:25:12.297Z,48.20
2019-04-10T11:27:42.775Z,47.80
2019-04-10T11:30:12.607Z,47.80
2019-04-10T11:32:42.408Z,47.70
2019-04-10T11:35:13.060Z,47.70
2019-04-10T11:40:16.358Z,47.60
2019-04-10T11:42:47.055Z,47.70
2019-04-10T11:45:18.585Z,47.50
2019-04-10T11:47:50.758Z,47.80
2019-04-10T11:50:18.909Z,48.00
2019-04-10T11:52:53.239Z,47.60
2019-04-10T11:55:21.189Z,48.00
2019-04-10T11:57:51.643Z,48.10
2019-04-10T12:00:27.232Z,47.90
2019-04-10T12:02:57.214Z,48.70
2019-04-10T12:05:28.732Z,47.90
2019-04-10T12:08:20.977Z,47.60
2019-04-10T12:12:59.914Z,47.20
2019-04-10T12:15:29.310Z,47.50
2019-04-10T12:17:58.753Z,47.50
2019-04-10T12:20:29.138Z,47.40
2019-04-10T12:22:58.741Z,47.30
2019-04-10T12:25:29.053Z,46.90
2019-04-10T12:27:58.592Z,46.90
2019-04-10T12:30:28.885Z,46.80
2019-04-10T12:32:58.436Z,46.70
2019-04-10T12:35:27.897Z,47.00
2019-04-10T12:38:02.542Z,47.70
2019-04-10T12:40:28.746Z,47.10
2019-04-10T12:42:58.789Z,46.80
2019-04-10T12:45:28.375Z,47.40
2019-04-10T12:47:58.554Z,47.10
2019-04-10T12:50:28.697Z,47.10
2019-04-10T12:52:58.854Z,47.00
2019-04-10T12:55:28.450Z,46.70
2019-04-10T12:58:06.522Z,46.50
2019-04-10T13:00:29.002Z,46.60
2019-04-10T13:02:58.653Z,46.80
2019-04-10T13:05:29.242Z,46.90
2019-04-10T13:08:06.440Z,47.10
2019-04-10T13:10:31.639Z,47.10
2019-04-10T13:13:01.931Z,47.00
2019-04-10T13:15:31.891Z,47.10
2019-04-10T13:18:01.416Z,47.10
2019-04-10T13:20:31.609Z,47.20
2019-04-10T13:23:01.025Z,46.90
2019-04-10T13:25:30.420Z,46.90
2019-04-10T13:27:59.872Z,47.00
2019-04-10T13:30:40.569Z,47.30
2019-04-10T13:33:00.492Z,47.70
2019-04-10T13:35:30.293Z,47.80
2019-04-10T13:38:00.918Z,47.60
2019-04-10T13:40:30.558Z,47.70
2019-04-10T13:43:01.211Z,47.70
2019-04-10T13:45:31.154Z,47.70
2019-04-10T13:48:00.621Z,47.80
2019-04-10T13:50:30.722Z,47.70
2019-04-10T13:53:00.336Z,47.70
2019-04-10T13:55:30.536Z,47.80
2019-04-10T13:58:01.308Z,47.80
2019-04-10T14:00:33.534Z,48.10
2019-04-10T14:03:03.880Z,48.10
2019-04-10T14:05:34.058Z,48.10
2019-04-10T14:08:04.831Z,48.20
2019-04-10T14:10:35.308Z,47.80
2019-04-10T14:13:05.269Z,47.70
2019-04-10T14:15:35.877Z,47.60
2019-04-10T14:18:06.101Z,47.30
2019-04-10T14:20:36.434Z,47.60
2019-04-10T14:23:10.370Z,48.00
2019-04-10T14:25:44.797Z,47.90
2019-04-10T14:28:15.268Z,47.50
2019-04-10T14:30:47.271Z,47.10
2019-04-10T14:33:17.867Z,47.10
2019-04-10T14:35:47.897Z,47.20
2019-04-10T14:38:18.985Z,47.20
2019-04-10T14:40:49.390Z,46.90
2019-04-10T14:43:19.475Z,46.90
2019-04-10T14:45:49.967Z,47.10
2019-04-10T14:48:20.245Z,47.30
2019-04-10T14:50:49.745Z,47.20
2019-04-10T14:53:20.255Z,47.30
2019-04-10T14:55:53.509Z,47.50
2019-04-10T14:58:28.136Z,47.60
2019-04-10T15:00:59.837Z,47.50
2019-04-10T15:03:30.688Z,47.20
2019-04-10T15:06:04.907Z,47.30
2019-04-10T15:08:35.925Z,47.40
2019-04-10T15:11:06.608Z,47.20
2019-04-10T15:13:36.229Z,47.50
2019-04-10T15:16:07.152Z,47.70
2019-04-10T15:18:37.218Z,47.80
2019-04-10T15:21:06.992Z,48.00
2019-04-10T15:23:37.026Z,47.90
2019-04-10T15:26:06.485Z,47.70
2019-04-10T15:28:36.082Z,47.90
2019-04-10T15:31:06.778Z,47.90
2019-04-10T15:33:37.586Z,47.90
2019-04-10T15:36:09.677Z,47.90
2019-04-10T15:38:40.479Z,47.70
2019-04-10T15:41:18.887Z,47.40
2019-04-10T15:43:57.347Z,47.10
2019-04-10T15:46:39.355Z,47.00
2019-04-10T15:49:22.882Z,47.30
2019-04-10T15:52:10.094Z,47.20
2019-04-10T15:54:55.446Z,47.00
2019-04-10T15:57:53.832Z,47.20
2019-04-10T16:00:23.294Z,47.10
2019-04-10T16:02:58.162Z,47.10
2019-04-10T16:05:50.146Z,47.30
2019-04-10T16:08:29.951Z,47.50
2019-04-10T16:11:09.822Z,47.70
2019-04-10T16:13:42.308Z,48.10
2019-04-10T16:16:34.290Z,48.10
2019-04-10T16:19:25.218Z,47.60
2019-04-10T16:22:01.204Z,47.60
2019-04-10T16:24:38.749Z,47.90
2019-04-10T16:27:16.119Z,47.80
2019-04-10T16:35:46.195Z,48.20
2019-04-10T16:38:29.068Z,48.10
2019-04-10T16:41:04.727Z,48.20
2019-04-10T16:43:41.268Z,48.30
2019-04-10T16:49:27.550Z,48.20
2019-04-10T16:52:04.939Z,48.20
2019-04-10T16:54:57.592Z,47.90
2019-04-10T16:57:39.836Z,47.90
2019-04-10T17:03:13.659Z,47.70
2019-04-10T17:05:55.709Z,47.80
2019-04-10T17:08:48.090Z,47.90
2019-04-10T17:11:23.047Z,48.00
2019-04-10T17:16:44.064Z,48.50
2019-04-10T17:19:28.703Z,48.60
2019-04-10T17:25:09.624Z,48.60
2019-04-10T17:27:56.330Z,48.60
2019-04-10T17:30:31.326Z,48.70
2019-04-10T17:33:07.284Z,48.90
2019-04-10T17:35:51.772Z,49.20
2019-04-10T17:38:26.745Z,49.40
2019-04-10T17:41:03.844Z,49.50
2019-04-10T17:43:35.453Z,49.60
2019-04-10T17:46:07.595Z,49.70
2019-04-10T17:48:44.502Z,49.90
2019-04-10T17:51:19.780Z,50.10
2019-04-10T17:53:51.912Z,50.10
2019-04-10T17:56:24.264Z,50.30
2019-04-10T17:58:58.188Z,50.40
2019-04-10T18:01:47.541Z,50.90
2019-04-10T18:04:24.267Z,50.30
2019-04-10T18:06:58.246Z,50.50
2019-04-10T18:09:30.988Z,50.60
2019-04-10T18:12:06.038Z,50.60
2019-04-10T18:14:49.854Z,50.70
2019-04-10T18:17:23.082Z,50.70
2019-04-10T18:19:54.688Z,50.90
2019-04-10T18:22:26.816Z,51.10
2019-04-10T18:25:01.390Z,51.50
2019-04-10T18:27:43.351Z,51.50
2019-04-10T18:30:24.797Z,51.20
2019-04-10T18:33:03.393Z,51.00
2019-04-10T18:36:02.963Z,51.00
2019-04-10T18:38:37.894Z,50.70
2019-04-10T18:41:12.226Z,50.50
2019-04-10T18:43:58.474Z,50.60
2019-04-10T18:46:37.667Z,50.60
2019-04-10T18:49:17.481Z,50.40
2019-04-10T18:51:56.939Z,50.50
2019-04-10T18:54:39.473Z,50.70
2019-04-10T18:57:16.209Z,50.60
2019-04-10T19:00:10.224Z,50.40
2019-04-10T19:02:59.266Z,50.50
2019-04-10T19:05:43.597Z,51.00
2019-04-10T19:08:17.703Z,50.40
2019-04-10T19:14:03.936Z,50.60
2019-04-10T19:22:42.467Z,50.10
2019-04-10T19:25:23.033Z,50.20
2019-04-10T19:28:01.290Z,50.10
2019-04-10T19:30:53.202Z,50.10
2019-04-10T19:33:31.374Z,50.20
2019-04-10T19:39:00.039Z,49.90
2019-04-10T19:41:36.678Z,49.90
2019-04-10T19:44:35.250Z,49.90
2019-04-10T19:47:10.392Z,49.80
2019-04-10T19:52:50.808Z,50.00
2019-04-10T19:55:25.114Z,49.80
2019-04-10T19:58:11.056Z,49.40
2019-04-10T20:00:48.771Z,49.00
2019-04-10T20:03:29.922Z,48.80
2019-04-10T20:06:05.897Z,48.70
2019-04-10T20:08:41.844Z,48.60
2019-04-10T20:11:42.080Z,48.50
2019-04-10T20:14:16.847Z,48.60
2019-04-10T20:16:55.466Z,48.70
2019-04-10T20:19:38.778Z,48.60
2019-04-10T20:22:20.943Z,48.70
2019-04-10T20:24:56.872Z,49.50
2019-04-10T20:27:38.276Z,49.00
2019-04-10T20:30:20.633Z,49.10
2019-04-10T20:33:06.612Z,49.10
2019-04-10T20:35:42.544Z,49.20
2019-04-10T20:38:20.455Z,49.30
2019-04-10T20:40:54.042Z,49.20
2019-04-10T20:43:30.556Z,49.40
2019-04-10T20:46:22.638Z,49.50
2019-04-10T20:48:55.578Z,49.40
2019-04-10T20:51:30.412Z,49.50
2019-04-10T20:54:20.847Z,49.80
2019-04-10T20:57:06.503Z,49.90
2019-04-10T20:59:37.547Z,49.70
2019-04-10T21:02:18.064Z,49.70
2019-04-10T21:05:06.351Z,49.80
2019-04-10T21:07:37.449Z,49.80
2019-04-10T21:10:15.003Z,49.90
2019-04-10T21:13:21.920Z,50.10
2019-04-10T21:15:44.665Z,50.10
2019-04-10T21:18:21.941Z,50.20
2019-04-10T21:20:59.490Z,50.20
2019-04-10T21:23:35.868Z,50.20
2019-04-10T21:26:12.186Z,50.40
2019-04-10T21:28:44.381Z,50.30
2019-04-10T21:32:26.395Z,50.50
2019-04-10T21:34:30.449Z,50.70
2019-04-10T21:37:20.102Z,50.80
2019-04-10T21:39:54.964Z,50.70
2019-04-10T21:42:37.329Z,50.70
2019-04-10T21:45:20.152Z,50.80
2019-04-10T21:47:54.800Z,50.80
2019-04-10T21:50:26.982Z,50.90
2019-04-10T21:53:04.372Z,51.00
2019-04-10T21:55:39.648Z,51.00
2019-04-10T21:58:13.043Z,51.00
2019-04-10T22:00:59.106Z,51.10
2019-04-10T22:03:36.493Z,51.20
2019-04-10T22:06:28.037Z,51.30
2019-04-10T22:09:10.883Z,51.20
2019-04-10T22:11:51.402Z,51.30
2019-04-10T22:14:30.128Z,51.20
2019-04-10T22:17:17.446Z,51.30
2019-04-10T22:20:01.802Z,51.50
2019-04-10T22:22:42.940Z,51.50
2019-04-10T22:28:08.963Z,51.40
2019-04-10T22:30:52.665Z,51.30
2019-04-10T22:33:27.797Z,51.40
2019-04-10T22:36:07.067Z,51.60
2019-04-10T22:39:04.731Z,51.60
2019-04-10T22:41:41.031Z,51.70
2019-04-10T22:44:34.036Z,51.80
2019-04-10T22:47:09.206Z,51.80
2019-04-10T22:52:32.508Z,52.10
2019-04-10T22:55:07.692Z,51.90
2019-04-10T23:00:22.376Z,51.80
2019-04-10T23:03:00.851Z,51.90
2019-04-10T23:05:46.862Z,52.00
2019-04-10T23:08:33.827Z,52.70
2019-04-10T23:11:03.602Z,52.10
2019-04-10T23:16:30.275Z,52.00
2019-04-10T23:19:05.625Z,52.00
2019-04-10T23:21:47.002Z,52.10
2019-04-10T23:24:32.271Z,52.00
2019-04-10T23:27:17.694Z,52.10
2019-04-10T23:30:00.298Z,52.20
2019-04-10T23:33:06.262Z,52.20
2019-04-10T23:35:11.545Z,52.00
2019-04-10T23:37:53.117Z,51.80
2019-04-10T23:40:58.971Z,51.80
2019-04-10T23:43:24.195Z,51.80
2019-04-10T23:45:56.473Z,51.70
2019-04-10T23:48:33.675Z,51.50
2019-04-10T23:51:21.126Z,51.40
2019-04-10T23:54:05.252Z,51.30
2019-04-10T23:56:41.928Z,51.20
2019-04-10T23:59:20.533Z,51.20
